< < Back
Terminal Aerodrome Forecast


Current Version              Previous Versions:   1  2  3  4  5  6  7  8  9  

Terminal Aerodrome Forecast

407
FTUS42 KMLB 271120
TAFMCO
TAF
KMCO 271120Z 2712/2812 00000KT P6SM SCT080 BKN120 BKN250
     FM271300 21004KT P6SM FEW020 SCT120 BKN250
     FM271800 23005KT P6SM VCTS SCT035CB BKN070
      TEMPO 2718/2721 2SM TSRA BKN030CB BKN070
     FM272200 12008KT P6SM VCSH SCT035 BKN080
     FM280200 15003KT P6SM SCT100 BKN250=



Latest METAR

228
SAUS70 KWBC 271900 RRI
MTRMCO
METAR KMCO 271853Z 00000KT 10SM -RA SCT034 BKN100 OVC140 23/22 A2997 RMK
AO2 TSE33 SLP146 P0005 T02330222


USA.gov is the U.S. government's official web portal to all federal, state and local government web resources and services.